METAR Data
IDs: Format: Raw Decoded Include TAF

Data at: 1235 UTC 17 Aug 2019

Region: TOP
KATL 171152Z 31004KT 10SM FEW250 24/19 A2999 RMK AO2 SLP145 T02390189 10261 20222 53008 $

KBOS 171154Z 12008KT 1/2SM R04R/1800V2200FT BR OVC003 20/18 A3008 RMK AO2 SFC VIS 1 SLP184 T02000183 10206 20194 53003

KBWI 171223Z 12005KT 10SM FEW008 BKN013 BKN060 27/24 A3000 RMK AO2 T02670239

KCLE 171151Z 18010KT 10SM BKN250 23/18 A2994 RMK AO2 SLP132 T02280178 10233 20211 58002

KCLT 171228Z 07007KT 6SM HZ SCT008 26/23 A3002 RMK AO2 T02560228

KCVG 171152Z 18003KT 10SM SCT060 BKN250 21/19 A3001 RMK AO2 SLP150 T02060189 10222 20189 53017

KDCA 171220Z 00000KT 10SM BKN010 BKN110 BKN250 26/23 A3000 RMK AO2 T02610228

KDEN 171153Z 20013KT 10SM FEW180 20/08 A2996 RMK AO2 SLP053 T02000078 10222 20194 50000

KDFW 171153Z 18011KT 10SM FEW300 27/22 A2985 RMK AO2 SLP099 T02720217 10300 20272 55002

KDTW 171153Z 18005KT 7SM FEW015 SCT025 BKN240 21/19 A2992 RMK AO2 SLP127 60019 70019 T02110194 10233 20200 53014 $

KEWR 171151Z VRB04KT 10SM BKN009 BKN016 BKN029 25/23 A3001 RMK AO2 SLP163 T02500228 10250 20239 51003

KFLL 171153Z 00000KT 10SM FEW035 FEW120 BKN250 27/24 A3007 RMK AO2 SLP180 T02720239 10272 20250 51009

KIAD 171152Z 00000KT 1SM R01R/P6000FT BR BKN004 OVC010 24/23 A3000 RMK AO2 SFC VIS 4 SLP154 TWR VIS S 1/2 T02390228 10239 20211 53004

KIAH 171153Z 18003KT 10SM FEW020 SCT250 27/24 A2989 RMK AO2 SLP120 T02720244 10289 20272 55006

KJFK 171151Z 04007KT 9SM BKN006 BKN022 24/23 A3002 RMK AO2 SLP166 T02390233 10239 20233 51003

KLAS 171156Z 17004KT 10SM CLR 31/01 A2974 RMK AO2 SLP036 T03110006 10344 20306 53002

KLAX 171153Z 12004KT 10SM OVC020 19/13 A2990 RMK AO2 SLP122 T01940133 10200 20183 56004 $

KLGA 171224Z 06006KT 10SM OVC005 23/21 A3002 RMK AO2 T02330211

KMCO 171153Z 28005KT 10SM FEW050 FEW190 BKN250 24/22 A3008 RMK AO2 SLP183 70006 T02390222 10244 20228 53015

KMDW 171153Z 00000KT 10SM FEW045 SCT065 BKN250 22/20 A2991 RMK AO2 SLP120 T02170200 10222 20206 51013

KMEM 171154Z 00000KT 10SM FEW250 24/22 A2997 RMK AO2 SLP145 T02440217 10278 20239 51022

KMIA 171153Z 00000KT 10SM BKN120 BKN150 BKN250 28/22 A3007 RMK AO2 SLP182 70013 T02780217 10278 20256 51007

KMSP 171153Z VRB03KT 10SM FEW250 18/14 A2988 RMK AO2 SLP114 T01780144 10211 20172 53019 $

KORD 171151Z 00000KT 10SM SCT044 BKN070 BKN250 21/18 A2992 RMK AO2 SLP126 T02060183 10217 20194 51015

KPDX 171153Z 11004KT 10SM -DZ SCT026 OVC041 16/14 A3003 RMK AO2 RAE1055DZB11 SLP167 P0000 60001 70001 T01610139 10178 20156 56005

KPHL 171223Z VRB04KT 10SM BKN009 26/22 A3001 RMK AO2 CIG 008V011 T02610222 $

KPHX 171151Z 09007KT 10SM CLR 31/15 A2979 RMK AO2 SLP064 T03060150 10372 20306 53005

KPIT 171151Z 18004KT 10SM FEW150 SCT250 19/17 A2999 RMK AO2 SLP156 T01890172 10189 20172 56005

KSAN 171151Z 14004KT 10SM OVC014 18/14 A2992 RMK AO2 SLP132 T01830144 10189 20178 56005

KSEA 171153Z 21004KT 10SM BKN027 OVC070 16/12 A3000 RMK AO2 SLP164 T01610117 10172 20161 58010

KSFO 171156Z 23004KT 10SM CLR 17/12 A2980 RMK AO2 SLP091 T01670122 10183 20161 53000

KSLC 171154Z 05003KT 10SM BKN150 20/07 A2991 RMK AO2 SLP068 T02000072 10244 20194 53004 $

KSTL 171233Z 30009KT 10SM -TSRA FEW030 BKN060CB OVC110 24/21 A2996 RMK AO2 PK WND 23030/1203 LTG DSNT NW-E RAE1156B02GRB16E23 TSB1156 OCNL LTGICCCCG NE-SE TS NE-SE MOV NE P0012 T02390206 $

KTPA 171153Z 00000KT 10SM FEW024 BKN090 OVC170 24/23 A3008 RMK AO2 RAE49 SLP184 P0027 60066 70148 T02440228 10267 20239 50018 $